Time;durP1;ratioP1;P1;durP2;ratioP2;P2;SDS_P1;SDS_P2;PMS_P1;PMS_P2;Temp;Humidity;BMP_temperature;BMP_pressure;BME280_temperature;BME280_humidity;BME280_pressure;Samples;Min_cycle;Max_cycle;Signal;HPM_P1;HPM_P2
2021/10/09 00:02:53;;;;;;;1999.90;999.90;;;;;;;9.64;66.06;102806.22;15677264;28;20040;-60
2021/10/09 00:10:28;;;;;;;1999.90;999.90;;;;;;;9.61;65.65;102798.41;15678749;28;20135;-62
2021/10/09 00:18:01;;;;;;;1999.90;999.90;;;;;;;9.55;65.79;102801.19;15678370;28;20063;-61
2021/10/09 00:25:35;;;;;;;1999.90;999.90;;;;;;;9.42;65.80;102803.66;15677917;28;20041;-61
2021/10/09 00:33:09;;;;;;;1999.90;999.90;;;;;;;9.20;66.59;102798.31;15677571;28;20041;-60
2021/10/09 00:40:43;;;;;;;1999.90;999.90;;;;;;;9.09;66.82;102807.75;15676296;28;20041;-60
2021/10/09 00:48:15;;;;;;;1999.90;999.90;;;;;;;8.81;67.19;102800.66;15676731;28;20052;-58
2021/10/09 00:55:52;;;;;;;1999.90;999.90;;;;;;;8.79;66.84;102798.13;15659503;28;20483;-59
2021/10/09 01:03:25;;;;;;;1999.90;999.90;;;;;;;8.79;67.61;102802.88;15676988;28;20037;-62
2021/10/09 01:10:59;;;;;;;1999.90;999.90;;;;;;;8.57;68.33;102801.06;15642279;28;20045;-60
2021/10/09 01:18:31;;;;;;;1999.90;999.90;;;;;;;8.36;68.76;102810.41;15664335;28;20056;-61
2021/10/09 01:26:07;;;;;;;1999.90;999.90;;;;;;;8.40;68.72;102797.63;15654080;28;20480;-61
2021/10/09 01:33:41;;;;;;;1999.90;999.90;;;;;;;8.02;70.09;102798.69;15669839;28;20071;-61
2021/10/09 01:41:16;;;;;;;1999.90;999.90;;;;;;;8.24;69.00;102788.31;15652705;28;20048;-60
2021/10/09 01:48:48;;;;;;;1999.90;999.90;;;;;;;8.32;68.74;102795.28;15669220;28;20037;-61
2021/10/09 01:56:22;;;;;;;1999.90;999.90;;;;;;;8.08;69.30;102795.69;15685912;28;20045;-60
2021/10/09 02:03:56;;;;;;;1999.90;999.90;;;;;;;7.91;69.67;102792.19;15668205;28;20124;-60
2021/10/09 02:11:37;;;;;;;1999.90;999.90;;;;;;;8.11;69.75;102791.53;15667178;28;20045;-60
2021/10/09 02:27:06;;;;;;;1999.90;999.90;;;;;;;7.69;69.90;102797.84;15641646;28;20048;-61
2021/10/09 02:34:41;;;;;;;1999.90;999.90;;;;;;;7.92;70.49;102791.13;15666487;28;20044;-60
2021/10/09 02:42:15;;;;;;;1999.90;999.90;;;;;;;7.74;70.05;102794.28;15665918;28;20463;-60
2021/10/09 02:49:47;;;;;;;1999.90;999.90;;;;;;;7.71;69.88;102805.91;15649370;28;20098;-60
2021/10/09 02:57:22;;;;;;;1999.90;999.90;;;;;;;7.75;70.26;102805.13;15665830;28;20055;-61
2021/10/09 03:04:55;;;;;;;1999.90;999.90;;;;;;;7.40;70.95;102804.75;15674922;28;20037;-61
2021/10/09 03:12:29;;;;;;;1999.90;999.90;;;;;;;7.31;71.24;102807.19;15671818;28;20045;-61
2021/10/09 03:20:01;;;;;;;1999.90;999.90;;;;;;;7.25;71.10;102816.53;15684972;28;20063;-61
2021/10/09 03:27:36;;;;;;;1999.90;999.90;;;;;;;7.14;71.56;102812.81;15663881;28;20061;-62
2021/10/09 03:35:11;;;;;;;1999.90;999.90;;;;;;;7.11;71.47;102826.38;15663201;28;20501;-61
2021/10/09 03:42:48;;;;;;;1999.90;999.90;;;;;;;7.13;71.20;102833.34;15662393;28;20418;-62
2021/10/09 03:50:34;;;;;;;1999.90;999.90;;;;;;;6.99;71.71;102829.28;15662011;28;20041;-61
2021/10/09 03:58:10;;;;;;;1999.90;999.90;;;;;;;7.20;71.06;102827.59;15661662;28;20512;-61
2021/10/09 04:05:43;;;;;;;1999.90;999.90;;;;;;;7.01;71.04;102832.63;15661363;28;20037;-61
2021/10/09 04:13:19;;;;;;;1999.90;999.90;;;;;;;7.01;70.96;102826.25;15644634;28;20132;-61
2021/10/09 04:20:51;;;;;;;;;;;;;;;7.34;70.35;102839.97;15660731;28;20041;-61
2021/10/09 04:28:26;;;;;;;1999.90;999.90;;;;;;;6.98;71.49;102832.28;15660036;28;20005;-60
2021/10/09 04:36:17;;;;;;;1999.90;999.90;;;;;;;7.00;71.21;102832.91;15677580;28;20041;-62
2021/10/09 04:43:51;;;;;;;1999.90;999.90;;;;;;;6.90;72.01;102830.81;15660233;28;20036;-61
2021/10/09 04:51:25;;;;;;;1999.90;999.90;;;;;;;6.86;71.38;102835.19;15663753;28;20053;-61
2021/10/09 04:58:59;;;;;;;1999.90;999.90;;;;;;;6.75;71.43;102836.97;15671950;28;20501;-61
2021/10/09 05:06:32;;;;;;;1999.90;999.90;;;;;;;6.69;71.55;102835.25;15687776;28;20453;-61
2021/10/09 05:14:06;;;;;;;1999.90;999.90;;;;;;;6.58;71.35;102838.97;15688868;28;20041;-61
2021/10/09 05:21:39;;;;;;;1999.90;999.90;;;;;;;6.54;72.07;102857.19;15670316;28;20165;-61
2021/10/09 05:29:16;;;;;;;1999.90;999.90;;;;;;;6.43;72.37;102860.91;15670388;28;20411;-61
2021/10/09 05:36:49;;;;;;;1999.90;999.90;;;;;;;6.29;72.49;102869.56;15669948;28;20068;-61
2021/10/09 05:44:23;;;;;;;1999.90;999.90;;;;;;;6.59;71.75;102871.16;15671315;28;20570;-61
2021/10/09 05:52:00;;;;;;;1999.90;999.90;;;;;;;6.62;70.92;102873.41;15669747;28;20091;-61
2021/10/09 07:02:39;;;;;;;1999.90;999.90;;;;;;;10.16;59.34;102930.69;15664870;28;20508;-62
2021/10/09 07:10:13;;;;;;;1999.90;999.90;;;;;;;10.64;57.17;102943.31;15664134;28;20127;-61
2021/10/09 07:17:48;;;;;;;1999.90;999.90;;;;;;;11.18;56.06;102939.88;15677640;28;20382;-59
2021/10/09 07:25:22;;;;;;;1999.90;999.90;;;;;;;11.76;54.39;102946.66;15686369;28;20587;-58
2021/10/09 07:32:57;;;;;;;1999.90;999.90;;;;;;;11.96;53.05;102950.50;15694276;28;20055;-60
2021/10/09 07:40:30;;;;;;;1999.90;999.90;;;;;;;11.74;53.54;102953.66;15673942;28;20044;-60
2021/10/09 07:48:05;;;;;;;1999.90;999.90;;;;;;;12.90;51.46;102952.00;15690291;28;20067;-60
2021/10/09 07:55:37;;;;;;;1999.90;999.90;;;;;;;12.76;50.48;102950.19;15681550;28;20486;-62
2021/10/09 08:03:11;;;;;;;1999.90;999.90;;;;;;;13.77;48.73;102951.09;15716098;28;20064;-60
2021/10/09 08:10:45;;;;;;;1999.90;999.90;;;;;;;13.61;49.05;102955.22;15712591;28;20475;-60
2021/10/09 08:18:20;;;;;;;1999.90;999.90;;;;;;;14.39;48.10;102958.31;15669821;28;20055;-57
2021/10/09 08:41:24;;;;;;;1999.90;999.90;;;;;;;14.84;43.99;102949.44;15707348;28;20194;-60
2021/10/09 08:48:58;;;;;;;1999.90;999.90;;;;;;;15.41;43.53;102955.66;15700052;28;20040;-61
2021/10/09 08:56:33;;;;;;;1999.90;999.90;;;;;;;16.58;41.17;102962.38;15705150;28;20055;-60
2021/10/09 09:04:14;;;;;;;1999.90;999.90;;;;;;;16.83;39.70;102977.00;15706255;28;20436;-58
2021/10/09 09:27:38;;;;;;;1999.90;999.90;;;;;;;17.98;37.67;102965.56;15677674;28;20135;-58
2021/10/09 09:42:58;;;;;;;1999.90;999.90;;;;;;;16.67;38.61;102966.09;15708102;28;20099;-61
2021/10/09 09:50:33;;;;;;;1999.90;999.90;;;;;;;18.49;37.00;102965.94;15694108;28;20406;-61
2021/10/09 09:58:06;;;;;;;1999.90;999.90;;;;;;;17.60;37.94;102959.63;15699477;28;20049;-61
2021/10/09 10:05:40;;;;;;;1999.90;999.90;;;;;;;18.35;37.47;102958.47;15721516;28;20151;-61
2021/10/09 10:13:14;;;;;;;1999.90;999.90;;;;;;;19.57;35.71;102956.22;15720119;28;20064;-61
2021/10/09 10:20:49;;;;;;;1999.90;999.90;;;;;;;20.51;35.56;102951.09;15666825;28;20036;-61
2021/10/09 10:28:26;;;;;;;1999.90;999.90;;;;;;;19.52;35.25;102937.41;15667027;28;20048;-62
2021/10/09 10:36:00;;;;;;;1999.90;999.90;;;;;;;20.51;33.71;102938.91;15665988;28;20041;-60
2021/10/09 10:43:43;;;;;;;1999.90;999.90;;;;;;;20.57;32.94;102940.38;15698471;28;20042;-60
2021/10/09 10:51:43;;;;;;;1999.90;999.90;;;;;;;20.70;31.59;102939.22;15712468;28;20340;-61
2021/10/09 10:59:28;;;;;;;1999.90;999.90;;;;;;;20.93;32.62;102929.13;15697940;28;20300;-61
2021/10/09 11:07:03;;;;;;;1999.90;999.90;;;;;;;20.92;31.98;102930.31;15704730;28;20040;-59
2021/10/09 11:14:35;;;;;;;1999.90;999.90;;;;;;;21.77;31.09;102915.34;15637340;28;20059;-62
2021/10/09 11:22:09;;;;;;;1999.90;999.90;;;;;;;20.43;33.15;102912.31;15663493;28;20045;-62
2021/10/09 11:29:42;;;;;;;1999.90;999.90;;;;;;;21.58;31.19;102909.47;15647591;28;20382;-60
2021/10/09 11:37:16;;;;;;;1999.90;999.90;;;;;;;21.92;30.27;102895.94;15693827;28;20048;-61
2021/10/09 11:45:11;;;;;;;1999.90;999.90;;;;;;;22.91;29.22;102892.34;15700616;28;20067;-61
2021/10/09 12:00:39;;;;;;;1999.90;999.90;;;;;;;23.19;28.80;102876.00;15693141;28;20036;-60
2021/10/09 12:08:15;;;;;;;1999.90;999.90;;;;;;;22.20;28.67;102885.47;15707634;28;20045;-62
2021/10/09 12:15:47;;;;;;;1999.90;999.90;;;;;;;23.21;27.47;102869.94;15693183;28;20471;-62
2021/10/09 12:23:28;;;;;;;1999.90;999.90;;;;;;;23.02;28.47;102862.97;15676414;28;20037;-61
2021/10/09 12:31:00;;;;;;;1999.90;999.90;;;;;;;25.15;26.80;102870.88;15696040;28;20303;-62
2021/10/09 12:38:39;;;;;;;1999.90;999.90;;;;;;;26.50;24.37;102863.44;15697481;28;20051;-62
2021/10/09 12:46:14;;;;;;;1999.90;999.90;;;;;;;23.80;26.41;102860.41;15696677;28;20064;-61
2021/10/09 12:53:48;;;;;;;1999.90;999.90;;;;;;;26.70;23.60;102847.72;15692355;28;20049;-60
2021/10/09 13:01:20;;;;;;;1999.90;999.90;;;;;;;23.65;26.81;102847.00;15706611;28;20048;-61
2021/10/09 13:08:54;;;;;;;1999.90;999.90;;;;;;;26.61;23.70;102836.56;15711231;28;20468;-62
2021/10/09 13:16:26;;;;;;;1999.90;999.90;;;;;;;22.01;28.82;102829.22;15728528;28;20045;-61
2021/10/09 13:24:00;;;;;;;1999.90;999.90;;;;;;;18.93;32.75;102828.97;15686705;28;20136;-62
2021/10/09 13:31:35;;;;;;;1999.90;999.90;;;;;;;17.87;35.70;102806.88;15696237;28;20410;-62
2021/10/09 13:39:09;;;;;;;1999.90;999.90;;;;;;;18.30;35.14;102811.66;15691752;28;20044;-58
2021/10/09 13:46:44;;;;;;;1999.90;999.90;;;;;;;17.47;35.75;102814.63;15735738;23;20121;-59
2021/10/09 13:54:18;;;;;;;1999.90;999.90;;;;;;;18.02;36.94;102811.19;15678606;28;20411;-56
2021/10/09 14:01:50;;;;;;;1999.90;999.90;;;;;;;17.48;36.00;102807.00;15660212;28;20512;-56
2021/10/09 14:09:24;;;;;;;1999.90;999.90;;;;;;;17.76;35.84;102807.56;15685349;28;21093;-56
2021/10/09 14:16:56;;;;;;;1999.90;999.90;;;;;;;17.80;35.77;102795.25;15674805;28;20061;-58
2021/10/09 14:24:30;;;;;;;1999.90;999.90;;;;;;;17.58;37.17;102789.72;15678997;28;20056;-59
2021/10/09 14:32:02;;;;;;;1999.90;999.90;;;;;;;17.33;37.34;102784.91;15680367;28;20054;-56
2021/10/09 14:39:36;;;;;;;1999.90;999.90;;;;;;;17.46;37.01;102778.28;15671018;28;20068;-60
2021/10/09 14:47:36;;;;;;;1999.90;999.90;;;;;;;16.94;37.21;102764.06;15677288;28;20516;-55
2021/10/09 15:19:31;;;;;;;1999.90;999.90;;;;;;;16.44;39.76;102750.22;15483798;28;20533;-56
2021/10/09 15:27:14;;;;;;;1999.90;999.90;;;;;;;16.64;39.21;102755.28;15675234;28;20047;-55
2021/10/09 15:34:46;;;;;;;1999.90;999.90;;;;;;;16.31;40.21;102752.00;15657425;28;20049;-57
2021/10/09 15:42:20;;;;;;;1999.90;999.90;;;;;;;16.19;40.54;102756.56;15674362;28;20068;-56
2021/10/09 15:49:53;;;;;;;1999.90;999.90;;;;;;;15.74;41.09;102765.03;15675624;28;20045;-60
2021/10/09 15:57:27;;;;;;;1999.90;999.90;;;;;;;15.67;41.58;102768.28;15676039;28;20049;-54
2021/10/09 16:05:00;;;;;;;1999.90;999.90;;;;;;;15.55;41.68;102767.97;15673019;28;20041;-55
2021/10/09 16:12:34;;;;;;;1999.90;999.90;;;;;;;15.44;42.23;102758.94;15672953;28;20053;-56
2021/10/09 16:20:08;;;;;;;1999.90;999.90;;;;;;;15.22;43.03;102759.72;15660132;28;20047;-52
2021/10/09 16:27:42;;;;;;;1999.90;999.90;;;;;;;14.74;44.24;102764.97;15648155;28;20498;-53
2021/10/09 16:35:14;;;;;;;1999.90;999.90;;;;;;;14.49;45.87;102763.50;15665051;28;20045;-56
2021/10/09 16:42:48;;;;;;;1999.90;999.90;;;;;;;14.37;45.74;102761.16;15647117;28;20051;-60
2021/10/09 16:50:24;;;;;;;1999.90;999.90;;;;;;;14.59;47.91;102762.44;15658650;28;20417;-55
2021/10/09 16:57:58;;;;;;;1999.90;999.90;;;;;;;14.27;49.35;102758.53;15685768;28;20048;-55
2021/10/09 17:05:30;;;;;;;1999.90;999.90;;;;;;;13.83;49.34;102765.47;15676434;28;20647;-55
2021/10/09 17:13:04;;;;;;;1999.90;999.90;;;;;;;13.95;50.08;102758.53;15682856;28;20052;-52
2021/10/09 17:20:36;;;;;;;1999.90;999.90;;;;;;;13.33;50.82;102761.47;15682588;28;20127;-56
2021/10/09 17:28:10;;;;;;;1999.90;999.90;;;;;;;13.38;51.45;102761.41;15681564;28;20466;-57
2021/10/09 17:35:43;;;;;;;1999.90;999.90;;;;;;;13.24;52.41;102754.91;15676646;28;20122;-61
2021/10/09 17:43:16;;;;;;;1999.90;999.90;;;;;;;12.91;53.45;102757.53;15667185;28;20063;-55
2021/10/09 17:50:49;;;;;;;1999.90;999.90;;;;;;;12.67;54.81;102763.16;15681485;28;20074;-57
2021/10/09 17:58:23;;;;;;;1999.90;999.90;;;;;;;12.40;55.27;102774.06;15671941;28;20092;-56
2021/10/09 18:05:56;;;;;;;1999.90;999.90;;;;;;;12.07;57.92;102771.03;15645427;28;20084;-63
2021/10/09 18:13:29;;;;;;;1999.90;999.90;;;;;;;11.80;58.15;102765.13;15662339;28;20124;-57
2021/10/09 18:21:03;;;;;;;1999.90;999.90;;;;;;;11.67;58.25;102761.00;15662147;28;20563;-56
2021/10/09 18:28:36;;;;;;;1999.90;999.90;;;;;;;11.42;56.76;102764.78;15675638;28;20041;-57
2021/10/09 18:36:09;;;;;;;1999.90;999.90;;;;;;;11.44;56.93;102768.13;15678890;28;20588;-60
2021/10/09 18:43:43;;;;;;;1999.90;999.90;;;;;;;11.89;56.75;102770.94;15668795;28;20048;-58
2021/10/09 18:51:15;;;;;;;1999.90;999.90;;;;;;;11.78;57.73;102764.56;15677525;28;20092;-59
2021/10/09 18:58:49;;;;;;;1999.90;999.90;;;;;;;11.49;58.19;102767.28;15674267;28;20035;-59
2021/10/09 19:06:21;;;;;;;;;;;;;;;11.30;58.80;102769.06;15678421;28;20052;-59
2021/10/09 19:13:55;;;;;;;1999.90;999.90;;;;;;;10.83;60.12;102773.19;15677908;28;19939;-57
2021/10/09 19:21:27;;;;;;;;;;;;;;;10.83;59.50;102762.03;15675815;28;20072;-61
2021/10/09 19:29:01;;;;;;;1999.90;999.90;;;;;;;10.91;58.68;102761.44;15673933;28;20012;-63
2021/10/09 19:36:35;;;;;;;;;;;;;;;11.09;58.84;102769.19;15676379;28;20055;-61
2021/10/09 19:44:09;;;;;;;1999.90;999.90;;;;;;;10.95;59.43;102779.31;15674757;28;19924;-62
2021/10/09 19:51:49;;;;;;;1999.90;999.90;;;;;;;10.66;59.97;102771.59;15675238;28;20055;-56
2021/10/09 19:59:23;;;;;;;1999.90;999.90;;;;;;;10.30;59.75;102769.97;15672358;28;20033;-58
2021/10/09 20:06:57;;;;;;;1999.90;999.90;;;;;;;10.62;59.14;102775.22;15672385;28;20041;-53
2021/10/09 20:14:31;;;;;;;1999.90;999.90;;;;;;;10.77;59.38;102763.19;15672748;28;20367;-55
2021/10/09 20:22:07;;;;;;;1999.90;999.90;;;;;;;10.61;60.08;102766.00;15672211;28;20044;-58
2021/10/09 20:29:42;;;;;;;1999.90;999.90;;;;;;;10.32;61.00;102767.78;15670658;28;20486;-56
2021/10/09 20:37:15;;;;;;;1999.90;999.90;;;;;;;9.97;62.15;102757.44;15640988;28;20045;-61
2021/10/09 20:44:49;;;;;;;1999.90;999.90;;;;;;;9.82;62.14;102753.53;15610946;28;20425;-57
2021/10/09 20:52:22;;;;;;;;;;;;;;;9.58;62.68;102759.91;15613868;28;20052;-58
2021/10/09 20:59:56;;;;;;;1999.90;999.90;;;;;;;9.57;62.93;102763.81;15613075;28;19921;-60
2021/10/09 21:07:32;;;;;;;1999.90;999.90;;;;;;;9.60;62.96;102764.13;15612689;28;20049;-61
2021/10/09 21:22:56;;;;;;;1999.90;999.90;;;;;;;9.25;63.42;102759.31;15592610;28;20059;-57
2021/10/09 21:30:31;;;;;;;1999.90;999.90;;;;;;;9.19;63.14;102752.91;15613448;28;20421;-58
2021/10/09 21:38:04;;;;;;;1999.90;999.90;;;;;;;9.49;62.48;102743.78;15650683;28;20487;-60
2021/10/09 21:45:37;;;;;;;1999.90;999.90;;;;;;;9.45;62.53;102747.38;15701589;28;20037;-57
2021/10/09 21:53:10;;;;;;;;;;;;;;;9.33;63.02;102733.69;15686197;28;20131;-57
2021/10/09 22:01:36;;;;;;;1999.90;999.90;;;;;;;9.14;63.49;102736.16;15684639;28;19920;-59
2021/10/09 22:17:01;;;;;;;1999.90;999.90;;;;;;;8.94;63.79;102722.16;15683463;28;20045;-58
2021/10/09 22:32:42;;;;;;;1999.90;999.90;;;;;;;8.82;63.99;102727.16;15661769;28;20075;-59
2021/10/09 22:40:16;;;;;;;1999.90;999.90;;;;;;;8.79;64.28;102727.69;15624066;28;20149;-58
2021/10/09 22:47:49;;;;;;;1999.90;999.90;;;;;;;8.67;64.54;102720.41;15614963;28;20216;-56
2021/10/09 22:55:22;;;;;;;;;;;;;;;8.55;64.57;102717.03;15615041;28;20136;-58
2021/10/09 23:02:55;;;;;;;1999.90;999.90;;;;;;;8.43;65.39;102715.53;15637705;28;19942;-56
2021/10/09 23:10:28;;;;;;;;;;;;;;;8.27;65.70;102709.88;15677440;28;20498;-56
2021/10/09 23:18:01;;;;;;;1999.90;999.90;;;;;;;8.00;66.97;102714.69;15652427;28;20023;-57
2021/10/09 23:25:34;;;;;;;1999.90;999.90;;;;;;;7.98;66.30;102703.84;15653952;28;20167;-58
2021/10/09 23:33:08;;;;;;;1999.90;999.90;;;;;;;7.91;66.01;102708.78;15618066;28;20042;-57
2021/10/09 23:40:41;;;;;;;1999.90;999.90;;;;;;;7.83;67.16;102700.97;15664564;28;20080;-61
2021/10/09 23:48:15;;;;;;;1999.90;999.90;;;;;;;7.68;66.70;102696.13;15674365;28;20063;-60
2021/10/09 23:55:47;;;;;;;1999.90;999.90;;;;;;;7.76;66.53;102687.28;15638014;28;20041;-57
